createdAt,value
2022-10-26T00:00:53.109Z,61.10
2022-10-26T00:03:20.183Z,61.10
2022-10-26T00:05:47.000Z,61.10
2022-10-26T00:08:13.984Z,61.10
2022-10-26T00:10:40.965Z,62.00
2022-10-26T00:13:11.133Z,62.00
2022-10-26T00:15:42.777Z,61.00
2022-10-26T00:18:10.101Z,61.10
2022-10-26T00:20:36.868Z,61.10
2022-10-26T00:23:03.906Z,61.10
2022-10-26T00:25:30.650Z,62.00
2022-10-26T00:27:57.450Z,61.00
2022-10-26T00:30:24.191Z,61.00
2022-10-26T00:32:50.963Z,61.10
2022-10-26T00:35:24.020Z,61.30
2022-10-26T00:37:56.597Z,61.50
2022-10-26T00:40:28.342Z,61.50
2022-10-26T00:42:55.231Z,61.60
2022-10-26T00:45:23.853Z,61.60
2022-10-26T00:47:56.634Z,61.50
2022-10-26T00:50:30.416Z,61.40
2022-10-26T00:52:59.967Z,61.40
2022-10-26T00:55:31.682Z,61.40
2022-10-26T00:57:59.504Z,61.20
2022-10-26T01:00:26.332Z,61.20
2022-10-26T01:02:57.276Z,61.10
2022-10-26T01:05:25.710Z,61.20
2022-10-26T01:07:53.985Z,61.10
2022-10-26T01:10:21.530Z,61.20
2022-10-26T01:12:49.037Z,61.30
2022-10-26T01:15:16.021Z,61.40
2022-10-26T01:17:54.454Z,61.80
2022-10-26T01:20:32.942Z,61.10
2022-10-26T01:23:21.154Z,61.00
2022-10-26T01:26:11.691Z,61.00
2022-10-26T01:29:06.005Z,61.00
2022-10-26T01:31:48.078Z,61.10
2022-10-26T01:34:21.954Z,61.00
2022-10-26T01:36:55.275Z,61.00
2022-10-26T01:39:29.837Z,61.00
2022-10-26T01:42:01.424Z,61.00
2022-10-26T01:44:39.561Z,61.00
2022-10-26T01:47:07.821Z,61.10
2022-10-26T01:49:39.409Z,61.10
2022-10-26T01:52:06.121Z,61.10
2022-10-26T01:57:07.677Z,61.00
2022-10-26T01:59:58.396Z,61.10
2022-10-26T02:02:36.123Z,61.10
2022-10-26T02:05:18.198Z,61.10
2022-10-26T02:07:44.940Z,61.00
2022-10-26T02:10:29.823Z,61.00
2022-10-26T02:13:21.724Z,61.10
2022-10-26T02:16:10.235Z,61.10
2022-10-26T02:18:47.862Z,61.10
2022-10-26T02:21:21.965Z,61.10
2022-10-26T02:23:51.274Z,61.00
2022-10-26T02:26:22.177Z,61.10
2022-10-26T02:28:51.595Z,61.30
2022-10-26T02:31:20.333Z,61.40
2022-10-26T02:36:26.598Z,61.50
2022-10-26T02:38:55.309Z,61.60
2022-10-26T02:41:24.148Z,61.50
2022-10-26T02:44:05.716Z,61.50
2022-10-26T02:46:32.904Z,61.60
2022-10-26T02:49:00.193Z,61.60
2022-10-26T02:51:56.054Z,61.70
2022-10-26T02:54:46.241Z,62.60
2022-10-26T02:57:20.792Z,61.80
2022-10-26T02:59:49.129Z,61.60
2022-10-26T03:02:20.596Z,61.70
2022-10-26T03:04:50.120Z,62.50
2022-10-26T03:07:23.926Z,61.70
2022-10-26T03:09:50.933Z,61.70
2022-10-26T03:12:18.360Z,61.60
2022-10-26T03:14:45.096Z,61.60
2022-10-26T03:17:11.867Z,61.70
2022-10-26T03:19:38.591Z,61.70
2022-10-26T03:22:05.350Z,61.80
2022-10-26T03:24:32.218Z,61.90
2022-10-26T03:27:01.260Z,61.90
2022-10-26T03:29:29.161Z,61.90
2022-10-26T03:31:55.851Z,61.90
2022-10-26T03:34:22.568Z,61.90
2022-10-26T03:36:49.280Z,61.90
2022-10-26T03:39:16.045Z,62.00
2022-10-26T03:41:42.921Z,61.90
2022-10-26T03:44:09.791Z,62.00
2022-10-26T03:46:36.496Z,62.10
2022-10-26T03:49:03.265Z,62.10
2022-10-26T03:51:30.388Z,62.00
2022-10-26T03:53:57.139Z,62.10
2022-10-26T03:56:23.953Z,62.00
2022-10-26T03:58:50.743Z,61.80
2022-10-26T04:01:17.563Z,61.90
2022-10-26T04:03:44.647Z,61.90
2022-10-26T04:06:11.409Z,61.90
2022-10-26T04:08:38.114Z,61.90
2022-10-26T04:11:05.002Z,62.00
2022-10-26T04:13:31.847Z,62.00
2022-10-26T04:15:58.645Z,62.00
2022-10-26T04:18:25.489Z,61.80
2022-10-26T04:20:52.269Z,61.80
2022-10-26T04:23:19.987Z,61.80
2022-10-26T04:25:46.963Z,62.70
2022-10-26T04:28:14.739Z,61.90
2022-10-26T04:30:41.796Z,61.90
2022-10-26T04:33:09.133Z,61.90
2022-10-26T04:35:35.930Z,61.80
2022-10-26T04:38:05.591Z,61.80
2022-10-26T04:40:33.636Z,61.80
2022-10-26T04:43:00.324Z,61.80
2022-10-26T04:45:31.203Z,62.00
2022-10-26T04:48:10.060Z,61.90
2022-10-26T04:50:37.243Z,61.90
2022-10-26T04:53:08.406Z,61.90
2022-10-26T04:55:35.600Z,61.90
2022-10-26T04:58:02.812Z,61.90
2022-10-26T05:00:32.957Z,61.90
2022-10-26T05:03:05.230Z,61.90
2022-10-26T05:05:33.662Z,61.90
2022-10-26T05:08:00.681Z,62.90
2022-10-26T05:10:28.174Z,62.00
2022-10-26T05:12:56.626Z,62.00
2022-10-26T05:15:23.544Z,61.90
2022-10-26T05:18:02.765Z,61.90
2022-10-26T05:20:31.420Z,61.90
2022-10-26T05:22:59.669Z,62.00
2022-10-26T05:25:27.283Z,62.90
2022-10-26T05:28:05.065Z,61.90
2022-10-26T05:30:32.245Z,61.90
2022-10-26T05:33:00.986Z,61.80
2022-10-26T05:35:27.877Z,61.90
2022-10-26T05:37:54.678Z,61.80
2022-10-26T05:40:21.642Z,61.80
2022-10-26T05:42:48.892Z,61.80
2022-10-26T05:45:18.029Z,61.80
2022-10-26T05:47:46.193Z,61.70
2022-10-26T05:50:14.240Z,61.70
2022-10-26T05:52:46.254Z,61.80
2022-10-26T05:55:15.539Z,61.80
2022-10-26T05:57:43.165Z,61.90
2022-10-26T06:00:16.309Z,61.90
2022-10-26T06:03:08.086Z,61.80
2022-10-26T06:06:03.977Z,61.80
2022-10-26T06:08:33.741Z,62.10
2022-10-26T06:11:01.304Z,62.40
2022-10-26T06:13:28.450Z,62.50
2022-10-26T06:16:17.076Z,62.40
2022-10-26T06:19:02.406Z,62.30
2022-10-26T06:21:47.676Z,62.00
2022-10-26T06:24:34.719Z,61.80
2022-10-26T06:27:15.774Z,61.60
2022-10-26T06:30:00.631Z,61.50
2022-10-26T06:32:27.996Z,61.40
2022-10-26T06:35:07.254Z,61.20
2022-10-26T06:37:36.449Z,61.10
2022-10-26T06:40:04.558Z,60.90
2022-10-26T06:42:32.462Z,60.90
2022-10-26T06:44:59.469Z,60.70
2022-10-26T06:47:41.351Z,60.60
2022-10-26T06:50:37.546Z,60.60
2022-10-26T06:53:16.788Z,60.40
2022-10-26T06:55:46.267Z,60.30
2022-10-26T06:58:19.672Z,60.30
2022-10-26T07:00:49.439Z,60.10
2022-10-26T07:03:16.706Z,60.00
2022-10-26T07:05:45.215Z,60.00
2022-10-26T07:08:12.116Z,60.00
2022-10-26T07:10:39.130Z,60.00
2022-10-26T07:13:06.767Z,59.70
2022-10-26T07:15:37.965Z,59.70
2022-10-26T07:18:06.275Z,59.50
2022-10-26T07:20:36.807Z,59.40
2022-10-26T07:23:06.798Z,59.30
2022-10-26T07:25:34.758Z,59.20
2022-10-26T07:28:01.936Z,59.20
2022-10-26T07:30:29.930Z,58.90
2022-10-26T07:33:06.698Z,59.00
2022-10-26T07:35:34.090Z,58.70
2022-10-26T07:38:00.905Z,58.60
2022-10-26T07:40:28.205Z,59.50
2022-10-26T07:42:59.601Z,59.50
2022-10-26T07:45:28.390Z,58.40
2022-10-26T07:47:55.663Z,58.30
2022-10-26T07:50:23.090Z,58.40
2022-10-26T07:52:50.396Z,58.30
2022-10-26T07:55:17.525Z,58.30
2022-10-26T07:57:44.493Z,58.30
2022-10-26T08:00:11.855Z,58.00
2022-10-26T08:02:38.703Z,57.80
2022-10-26T08:05:05.907Z,57.80
2022-10-26T08:07:32.718Z,57.50
2022-10-26T08:09:59.548Z,56.90
2022-10-26T08:12:26.234Z,56.40
2022-10-26T08:14:52.937Z,56.30
2022-10-26T08:17:21.501Z,56.10
2022-10-26T08:19:49.463Z,56.00
2022-10-26T08:22:16.236Z,56.00
2022-10-26T08:24:46.630Z,55.90
2022-10-26T08:27:14.993Z,55.60
2022-10-26T08:29:42.339Z,55.10
2022-10-26T08:32:09.154Z,54.80
2022-10-26T08:34:36.221Z,55.40
2022-10-26T08:37:03.295Z,53.80
2022-10-26T08:39:30.942Z,53.20
2022-10-26T08:42:34.110Z,52.70
2022-10-26T08:45:12.649Z,52.40
2022-10-26T08:47:51.221Z,51.70
2022-10-26T08:50:44.291Z,51.30
2022-10-26T08:53:20.188Z,50.70
2022-10-26T08:55:51.454Z,50.90
2022-10-26T08:58:22.580Z,50.60
2022-10-26T09:00:51.217Z,50.60
2022-10-26T09:03:19.205Z,50.80
2022-10-26T09:06:13.038Z,50.90
2022-10-26T09:09:05.189Z,51.10
2022-10-26T09:11:59.666Z,51.40
2022-10-26T09:14:44.472Z,51.70
2022-10-26T09:17:31.129Z,51.90
2022-10-26T09:20:12.739Z,51.40
2022-10-26T09:22:52.941Z,50.70
2022-10-26T09:25:20.889Z,50.10
2022-10-26T09:27:57.350Z,49.30
2022-10-26T09:30:24.659Z,48.60
2022-10-26T09:33:08.852Z,48.20
2022-10-26T09:35:57.753Z,48.10
2022-10-26T09:38:28.558Z,48.00
2022-10-26T09:41:22.483Z,47.80
2022-10-26T09:44:12.951Z,47.90
2022-10-26T09:47:04.212Z,48.00
2022-10-26T09:50:04.269Z,48.00
2022-10-26T09:52:30.975Z,47.90
2022-10-26T09:54:57.705Z,47.90
2022-10-26T09:57:25.038Z,47.70
2022-10-26T09:59:52.644Z,47.60
2022-10-26T10:02:43.812Z,47.60
2022-10-26T10:05:50.682Z,47.50
2022-10-26T10:08:18.659Z,47.30
2022-10-26T10:11:08.614Z,48.30
2022-10-26T10:13:46.465Z,47.20
2022-10-26T10:16:23.687Z,47.30
2022-10-26T10:18:58.613Z,47.10
2022-10-26T10:21:48.097Z,46.90
2022-10-26T10:24:25.406Z,47.00
2022-10-26T10:26:57.817Z,46.90
2022-10-26T10:29:40.391Z,46.70
2022-10-26T10:32:14.739Z,46.50
2022-10-26T10:34:41.738Z,46.30
2022-10-26T10:37:31.918Z,46.30
2022-10-26T10:40:04.134Z,46.50
2022-10-26T10:42:39.962Z,46.70
2022-10-26T10:45:18.842Z,47.90
2022-10-26T10:47:58.752Z,47.20
2022-10-26T10:50:25.818Z,47.30
2022-10-26T10:52:52.999Z,47.50
2022-10-26T10:55:21.609Z,47.80
2022-10-26T10:58:12.341Z,47.90
2022-10-26T11:00:43.171Z,48.00
2022-10-26T11:03:29.255Z,48.10
2022-10-26T11:06:28.854Z,48.20
2022-10-26T11:09:07.488Z,48.40
2022-10-26T11:11:45.433Z,48.50
2022-10-26T11:14:34.697Z,48.70
2022-10-26T11:17:22.461Z,48.90
2022-10-26T11:19:58.839Z,49.10
2022-10-26T11:26:11.510Z,49.50
2022-10-26T11:28:46.421Z,49.60
2022-10-26T11:31:27.924Z,49.90
2022-10-26T11:34:33.747Z,50.10
2022-10-26T11:37:30.202Z,50.30
2022-10-26T11:40:18.165Z,50.50
2022-10-26T11:43:01.114Z,50.70
2022-10-26T11:45:50.537Z,50.90
2022-10-26T11:48:28.379Z,51.00
2022-10-26T11:50:58.321Z,51.20
2022-10-26T11:53:45.395Z,51.30
2022-10-26T11:56:18.813Z,51.30
2022-10-26T11:58:46.352Z,51.30
2022-10-26T12:01:15.827Z,51.30
2022-10-26T12:03:49.590Z,51.40
2022-10-26T12:06:20.829Z,51.20
2022-10-26T12:09:07.945Z,51.20
2022-10-26T12:11:40.454Z,51.10
2022-10-26T12:14:20.116Z,51.00
2022-10-26T12:17:07.085Z,52.10
2022-10-26T12:19:53.207Z,51.10
2022-10-26T12:22:23.406Z,51.00
2022-10-26T12:25:19.714Z,50.90
2022-10-26T12:30:17.971Z,50.80
2022-10-26T12:32:44.711Z,50.80
2022-10-26T12:35:36.423Z,50.70
2022-10-26T12:38:23.493Z,50.80
2022-10-26T12:41:19.233Z,50.70
2022-10-26T12:43:46.881Z,50.70
2022-10-26T12:46:13.600Z,50.80
2022-10-26T12:48:42.645Z,50.80
2022-10-26T12:51:30.397Z,50.80
2022-10-26T12:54:15.560Z,50.80
2022-10-26T12:56:49.637Z,50.90
2022-10-26T12:59:19.448Z,50.80
2022-10-26T13:02:18.372Z,50.80
2022-10-26T13:04:54.234Z,50.70
2022-10-26T13:07:26.089Z,50.90
2022-10-26T13:09:59.299Z,50.80
2022-10-26T13:12:27.930Z,50.80
2022-10-26T13:15:03.415Z,50.80
2022-10-26T13:20:02.287Z,51.90
2022-10-26T13:22:29.513Z,51.80
2022-10-26T13:25:01.972Z,50.90
2022-10-26T13:27:34.901Z,50.90
2022-10-26T13:30:04.731Z,50.90
2022-10-26T13:32:34.365Z,50.90
2022-10-26T13:35:02.878Z,50.80
2022-10-26T13:37:33.575Z,50.90
2022-10-26T13:40:00.652Z,52.00
2022-10-26T13:42:45.358Z,51.00
2022-10-26T13:45:31.577Z,51.00
2022-10-26T13:48:11.290Z,51.20
2022-10-26T13:50:48.871Z,51.30
2022-10-26T13:53:42.882Z,51.40
2022-10-26T13:56:21.703Z,51.40
2022-10-26T13:58:57.618Z,51.50
2022-10-26T14:01:26.041Z,52.00
2022-10-26T14:03:52.931Z,51.60
2022-10-26T14:06:38.939Z,51.70
2022-10-26T14:09:12.917Z,51.80
2022-10-26T14:11:56.093Z,51.90
2022-10-26T14:14:26.582Z,51.90
2022-10-26T14:16:54.193Z,52.00
2022-10-26T14:19:26.917Z,52.10
2022-10-26T14:21:54.694Z,52.20
2022-10-26T14:24:35.718Z,52.30
2022-10-26T14:27:18.268Z,52.40
2022-10-26T14:29:49.865Z,52.50
2022-10-26T14:32:27.462Z,52.50
2022-10-26T14:34:54.804Z,52.60
2022-10-26T14:37:41.902Z,52.70
2022-10-26T14:40:20.090Z,52.80
2022-10-26T14:42:51.926Z,53.00
2022-10-26T14:45:47.154Z,53.10
2022-10-26T14:48:20.378Z,53.10
2022-10-26T14:50:59.152Z,53.00
2022-10-26T14:53:52.812Z,53.00
2022-10-26T14:56:39.941Z,53.10
2022-10-26T14:59:26.908Z,53.10
2022-10-26T15:01:59.426Z,53.10
2022-10-26T15:04:37.264Z,53.10
2022-10-26T15:07:22.138Z,53.20
2022-10-26T15:09:53.318Z,53.20
2022-10-26T15:12:27.587Z,53.20
2022-10-26T15:14:55.117Z,53.30
2022-10-26T15:17:27.762Z,53.30
2022-10-26T15:19:55.568Z,53.40
2022-10-26T15:22:31.798Z,53.40
2022-10-26T15:25:02.403Z,53.40
2022-10-26T15:27:29.466Z,53.40
2022-10-26T15:30:27.086Z,53.60
2022-10-26T15:32:55.608Z,53.60
2022-10-26T15:35:30.742Z,53.60
2022-10-26T15:37:58.837Z,53.60
2022-10-26T15:40:27.630Z,53.60
2022-10-26T15:42:55.482Z,53.60
2022-10-26T15:45:24.593Z,53.70
2022-10-26T15:47:53.281Z,53.80
2022-10-26T15:50:23.044Z,53.80
2022-10-26T15:52:55.158Z,53.80
2022-10-26T15:55:22.110Z,53.80
2022-10-26T15:57:51.002Z,53.90
2022-10-26T16:00:18.544Z,53.90
2022-10-26T16:02:45.942Z,53.80
2022-10-26T16:05:16.066Z,54.00
2022-10-26T16:07:45.017Z,54.00
2022-10-26T16:10:21.528Z,54.00
2022-10-26T16:12:50.160Z,54.00
2022-10-26T16:15:19.829Z,54.00
2022-10-26T16:17:47.283Z,54.10
2022-10-26T16:20:24.931Z,54.30
2022-10-26T16:22:52.753Z,54.30
2022-10-26T16:25:21.668Z,55.40
2022-10-26T16:27:49.651Z,54.30
2022-10-26T16:30:17.169Z,54.50
2022-10-26T16:32:44.332Z,54.80
2022-10-26T16:35:12.381Z,55.00
2022-10-26T16:37:39.452Z,55.20
2022-10-26T16:40:08.101Z,55.30
2022-10-26T16:42:35.103Z,55.50
2022-10-26T16:45:03.250Z,55.60
2022-10-26T16:47:35.356Z,55.70
2022-10-26T16:50:02.924Z,55.80
2022-10-26T16:52:29.629Z,55.90
2022-10-26T16:54:56.839Z,56.00
2022-10-26T16:57:23.677Z,56.10
2022-10-26T16:59:50.360Z,56.20
2022-10-26T17:02:17.330Z,56.30
2022-10-26T17:04:44.182Z,56.40
2022-10-26T17:07:11.578Z,56.50
2022-10-26T17:09:38.625Z,56.70
2022-10-26T17:12:06.085Z,56.60
2022-10-26T17:14:32.859Z,56.80
2022-10-26T17:16:59.823Z,56.90
2022-10-26T17:19:26.603Z,57.00
2022-10-26T17:21:53.455Z,57.00
2022-10-26T17:24:20.333Z,57.20
2022-10-26T17:26:47.509Z,57.20
2022-10-26T17:29:14.447Z,57.20
2022-10-26T17:31:41.490Z,57.30
2022-10-26T17:34:08.297Z,57.40
2022-10-26T17:36:35.124Z,57.50
2022-10-26T17:39:01.906Z,57.60
2022-10-26T17:41:28.816Z,57.70
2022-10-26T17:43:55.684Z,57.70
2022-10-26T17:46:24.799Z,57.80
2022-10-26T17:49:00.067Z,57.90
2022-10-26T17:51:28.368Z,57.90
2022-10-26T17:53:55.803Z,57.90
2022-10-26T17:56:27.762Z,58.00
2022-10-26T17:59:03.757Z,58.00
2022-10-26T18:01:31.753Z,58.10
2022-10-26T18:03:58.748Z,58.20
2022-10-26T18:06:25.742Z,58.30
2022-10-26T18:08:52.597Z,58.40
2022-10-26T18:11:26.499Z,58.50
2022-10-26T18:13:54.460Z,58.50
2022-10-26T18:16:22.839Z,58.50
2022-10-26T18:18:50.341Z,58.50
2022-10-26T18:21:21.181Z,58.40
2022-10-26T18:23:47.926Z,58.50
2022-10-26T18:26:19.777Z,58.70
2022-10-26T18:28:46.912Z,58.90
2022-10-26T18:31:16.931Z,59.00
2022-10-26T18:33:43.861Z,59.10
2022-10-26T18:36:12.536Z,60.10
2022-10-26T18:38:40.128Z,59.20
2022-10-26T18:41:10.106Z,59.40
2022-10-26T18:43:41.221Z,59.40
2022-10-26T18:46:11.201Z,59.50
2022-10-26T18:48:38.365Z,59.50
2022-10-26T18:51:10.041Z,59.60
2022-10-26T18:53:38.393Z,59.70
2022-10-26T18:56:13.691Z,59.70
2022-10-26T18:58:42.983Z,59.80
2022-10-26T19:01:15.838Z,60.90
2022-10-26T19:03:43.941Z,60.10
2022-10-26T19:06:22.849Z,60.10
2022-10-26T19:08:49.616Z,60.20
2022-10-26T19:11:18.439Z,60.20
2022-10-26T19:13:45.859Z,60.30
2022-10-26T19:16:21.984Z,60.20
2022-10-26T19:19:00.292Z,60.40
2022-10-26T19:21:29.311Z,60.40
2022-10-26T19:23:58.688Z,60.50
2022-10-26T19:26:33.451Z,60.50
2022-10-26T19:29:05.856Z,60.60
2022-10-26T19:31:33.123Z,60.60
2022-10-26T19:34:00.729Z,60.60
2022-10-26T19:36:28.998Z,60.70
2022-10-26T19:38:56.349Z,60.70
2022-10-26T19:41:23.946Z,60.90
2022-10-26T19:43:50.963Z,60.80
2022-10-26T19:46:21.107Z,60.80
2022-10-26T19:48:49.926Z,60.90
2022-10-26T19:51:16.710Z,60.80
2022-10-26T19:53:43.538Z,60.90
2022-10-26T19:56:13.319Z,60.90
2022-10-26T19:58:44.522Z,60.90
2022-10-26T20:01:13.039Z,60.90
2022-10-26T20:03:39.965Z,61.00
2022-10-26T20:06:12.713Z,61.00
2022-10-26T20:08:44.866Z,61.10
2022-10-26T20:11:15.501Z,61.20
2022-10-26T20:13:44.333Z,61.20
2022-10-26T20:16:11.896Z,61.20
2022-10-26T20:18:42.594Z,61.20
2022-10-26T20:21:15.964Z,61.20
2022-10-26T20:23:43.147Z,61.20
2022-10-26T20:26:11.881Z,61.30
2022-10-26T20:28:47.742Z,61.30
2022-10-26T20:31:14.492Z,61.30
2022-10-26T20:33:41.218Z,61.40
2022-10-26T20:36:08.456Z,61.40
2022-10-26T20:38:35.515Z,61.50
2022-10-26T20:41:06.121Z,61.50
2022-10-26T20:43:38.777Z,61.50
2022-10-26T20:46:06.343Z,61.50
2022-10-26T20:48:33.409Z,61.50
2022-10-26T20:51:07.250Z,61.60
2022-10-26T20:53:44.067Z,61.60
2022-10-26T20:56:25.489Z,61.60
2022-10-26T20:59:01.220Z,61.70
2022-10-26T21:01:29.757Z,61.70
2022-10-26T21:03:58.926Z,61.70
2022-10-26T21:06:26.026Z,61.80
2022-10-26T21:08:54.535Z,61.90
2022-10-26T21:11:22.293Z,61.90
2022-10-26T21:13:50.043Z,61.80
2022-10-26T21:16:17.678Z,61.80
2022-10-26T21:18:44.487Z,62.00
2022-10-26T21:21:11.682Z,62.10
2022-10-26T21:23:40.577Z,62.20
2022-10-26T21:26:08.318Z,62.30
2022-10-26T21:28:45.718Z,62.40
2022-10-26T21:31:15.112Z,62.50
2022-10-26T21:33:42.093Z,62.50
2022-10-26T21:36:12.301Z,62.60
2022-10-26T21:38:40.155Z,62.80
2022-10-26T21:41:12.151Z,63.80
2022-10-26T21:43:40.532Z,62.80
2022-10-26T21:46:08.276Z,63.80
2022-10-26T21:48:35.252Z,63.00
2022-10-26T21:51:06.342Z,63.00
2022-10-26T21:53:33.057Z,63.10
2022-10-26T21:56:05.704Z,63.10
2022-10-26T21:58:32.636Z,63.20
2022-10-26T22:01:09.599Z,63.20
2022-10-26T22:03:37.306Z,63.20
2022-10-26T22:06:05.376Z,63.10
2022-10-26T22:08:32.678Z,63.10
2022-10-26T22:11:04.802Z,63.10
2022-10-26T22:13:31.558Z,63.10
2022-10-26T22:16:09.806Z,63.10
2022-10-26T22:18:38.859Z,63.20
2022-10-26T22:21:06.272Z,63.30
2022-10-26T22:23:34.973Z,63.30
2022-10-26T22:26:07.028Z,63.40
2022-10-26T22:28:38.567Z,63.40
2022-10-26T22:31:12.417Z,63.50
2022-10-26T22:33:39.384Z,63.60
2022-10-26T22:36:08.573Z,63.60
2022-10-26T22:38:35.392Z,63.60
2022-10-26T22:41:02.270Z,63.70
2022-10-26T22:43:29.333Z,63.80
2022-10-26T22:46:23.485Z,63.80
2022-10-26T22:48:58.121Z,63.80
2022-10-26T22:51:25.530Z,63.80
2022-10-26T22:53:57.025Z,63.80
2022-10-26T22:58:57.480Z,63.80
2022-10-26T23:01:32.892Z,63.80
2022-10-26T23:04:00.028Z,63.90
2022-10-26T23:06:29.553Z,64.00
2022-10-26T23:08:56.765Z,64.00
2022-10-26T23:11:25.491Z,64.10
2022-10-26T23:13:54.276Z,64.10
2022-10-26T23:16:21.334Z,64.10
2022-10-26T23:18:49.053Z,64.10
2022-10-26T23:21:16.712Z,64.20
2022-10-26T23:23:43.607Z,64.30
2022-10-26T23:26:15.511Z,64.30
2022-10-26T23:28:43.367Z,64.40
2022-10-26T23:31:22.239Z,64.50
2022-10-26T23:33:53.143Z,64.50
2022-10-26T23:36:20.261Z,64.50
2022-10-26T23:38:47.793Z,64.50
2022-10-26T23:41:15.152Z,64.60
2022-10-26T23:43:42.112Z,64.60
2022-10-26T23:46:09.285Z,64.60
2022-10-26T23:48:36.762Z,64.60
2022-10-26T23:51:03.731Z,64.70
2022-10-26T23:53:30.414Z,64.80
2022-10-26T23:55:57.104Z,64.80
2022-10-26T23:58:23.800Z,65.90
